Time;durP1;ratioP1;P1;durP2;ratioP2;P2;SDS_P1;SDS_P2;PMS_P1;PMS_P2;Temp;Humidity;BMP_temperature;BMP_pressure;BME280_temperature;BME280_humidity;BME280_pressure;Samples;Min_cycle;Max_cycle;Signal;HPM_P1;HPM_P2
2022/04/29 00:00:45;;;;;;;77.43;54.45;;;18.80;53.30;;;;;;4908807;28;96635;-68
2022/04/29 00:03:12;;;;;;;77.28;54.35;;;18.70;53.30;;;;;;4919852;28;100684;-69
2022/04/29 00:05:42;;;;;;;78.50;54.38;;;18.70;53.30;;;;;;4918666;28;100403;-69
2022/04/29 00:08:10;;;;;;;75.82;53.42;;;18.80;53.20;;;;;;4913107;28;96129;-69
2022/04/29 00:10:36;;;;;;;75.47;54.53;;;18.70;53.30;;;;;;4913164;28;96477;-69
2022/04/29 00:13:04;;;;;;;78.70;54.53;;;18.70;53.40;;;;;;4917822;28;96921;-69
2022/04/29 00:15:30;;;;;;;75.85;53.85;;;18.70;53.30;;;;;;4916990;28;98958;-69
2022/04/29 00:17:56;;;;;;;77.65;54.28;;;18.70;53.20;;;;;;4919993;28;97262;-68
2022/04/29 00:20:22;;;;;;;76.53;53.72;;;18.70;53.30;;;;;;4915313;28;94858;-68
2022/04/29 00:22:48;;;;;;;76.47;53.28;;;18.70;53.40;;;;;;4925283;28;96279;-70
2022/04/29 00:25:14;;;;;;;77.63;54.28;;;18.70;53.30;;;;;;4920399;28;95504;-68
2022/04/29 00:27:41;;;;;;;76.28;54.35;;;18.70;53.40;;;;;;4923674;28;98983;-69
2022/04/29 00:30:11;;;;;;;75.40;53.47;;;18.70;53.30;;;;;;4925051;28;97003;-69
2022/04/29 00:32:38;;;;;;;74.95;53.78;;;18.70;53.20;;;;;;4928439;28;98048;-69
2022/04/29 00:35:05;;;;;;;75.38;54.15;;;18.70;53.20;;;;;;4920136;28;95462;-69
2022/04/29 00:37:31;;;;;;;76.15;54.33;;;18.70;53.30;;;;;;4913407;28;97964;-68
2022/04/29 00:39:58;;;;;;;75.05;53.22;;;18.70;53.30;;;;;;4918019;28;95516;-69
2022/04/29 00:42:24;;;;;;;74.95;53.88;;;18.70;53.20;;;;;;4922579;28;97022;-69
2022/04/29 00:44:50;;;;;;;73.90;53.17;;;18.70;53.20;;;;;;4920690;28;100368;-69
2022/04/29 00:47:19;;;;;;;76.30;54.13;;;18.60;53.30;;;;;;4921329;28;95581;-68
2022/04/29 00:49:46;;;;;;;75.78;54.33;;;18.60;53.20;;;;;;4923617;28;97731;-69
2022/04/29 00:52:15;;;;;;;76.93;54.15;;;18.60;53.20;;;;;;4905136;28;97708;-68
2022/04/29 00:54:42;;;;;;;77.57;54.30;;;18.60;53.20;;;;;;4911297;28;95980;-69
2022/04/29 00:57:14;;;;;;;76.38;54.38;;;18.60;53.10;;;;;;4908697;28;101027;-68
2022/04/29 00:59:59;;;;;;;;;;;18.60;53.30;;;;;;4921999;28;98584;-69
2022/04/29 01:02:25;;;;;;;74.38;53.67;;;18.60;53.40;;;;;;4906800;28;95377;-69
2022/04/29 01:05:02;;;;;;;75.47;53.85;;;18.60;53.30;;;;;;4916446;28;96807;-68
2022/04/29 01:07:29;;;;;;;76.25;54.20;;;18.60;53.40;;;;;;4909465;28;95661;-69
2022/04/29 01:09:55;;;;;;;77.00;54.63;;;18.60;53.30;;;;;;4920566;28;95878;-69
2022/04/29 01:12:24;;;;;;;78.65;54.10;;;18.60;53.20;;;;;;4915752;28;95650;-69
2022/04/29 01:14:50;;;;;;;74.05;53.33;;;18.60;53.40;;;;;;4922899;28;96314;-68
2022/04/29 01:17:15;;;;;;;75.75;53.95;;;18.60;53.30;;;;;;4913703;28;96826;-68
2022/04/29 01:19:41;;;;;;;78.47;54.70;;;18.60;53.30;;;;;;4917571;28;98014;-68
2022/04/29 01:22:07;;;;;;;77.05;54.35;;;18.60;53.30;;;;;;4911930;28;96341;-69
2022/04/29 01:24:33;;;;;;;76.47;54.20;;;18.60;53.30;;;;;;4915778;28;95192;-69
2022/04/29 01:26:59;;;;;;;74.78;53.47;;;18.60;53.20;;;;;;4914071;28;96853;-69
2022/04/29 01:29:26;;;;;;;74.32;53.38;;;18.60;53.20;;;;;;4922019;28;98286;-69
2022/04/29 01:31:53;;;;;;;75.90;54.33;;;18.60;53.20;;;;;;4915607;28;94773;-68
2022/04/29 01:34:19;;;;;;;75.63;53.58;;;18.60;53.20;;;;;;4918853;28;94369;-69
2022/04/29 01:36:44;;;;;;;77.65;55.00;;;18.50;53.90;;;;;;4915669;28;100156;-68
2022/04/29 01:39:10;;;;;;;76.70;54.63;;;18.60;53.20;;;;;;4919312;28;100501;-69
2022/04/29 01:41:36;;;;;;;77.35;54.72;;;18.50;53.20;;;;;;4919089;28;96668;-69
2022/04/29 01:44:02;;;;;;;75.22;54.60;;;18.50;53.20;;;;;;4921814;28;99958;-68
2022/04/29 01:46:27;;;;;;;76.03;53.78;;;18.50;53.20;;;;;;4921219;28;99478;-69
2022/04/29 01:48:53;;;;;;;74.90;53.70;;;18.50;53.20;;;;;;4909989;28;95397;-69
2022/04/29 01:51:18;;;;;;;77.07;54.28;;;18.50;53.40;;;;;;4915486;28;96159;-68
2022/04/29 01:53:45;;;;;;;75.80;54.28;;;18.50;53.30;;;;;;4912375;28;95714;-69
2022/04/29 01:56:11;;;;;;;76.88;54.90;;;18.50;53.30;;;;;;4923188;28;95752;-68
2022/04/29 01:58:37;;;;;;;76.13;54.17;;;18.50;53.30;;;;;;4913560;28;99423;-69
2022/04/29 02:01:03;;;;;;;76.70;54.30;;;18.50;53.30;;;;;;4916766;28;100159;-69
2022/04/29 02:03:29;;;;;;;75.88;54.40;;;18.50;53.40;;;;;;4924580;28;99281;-68
2022/04/29 02:05:54;;;;;;;76.00;54.60;;;18.50;53.30;;;;;;4920885;28;96515;-69
2022/04/29 02:08:20;;;;;;;75.05;53.88;;;18.50;53.30;;;;;;4911421;28;101158;-68
2022/04/29 02:10:46;;;;;;;77.53;54.33;;;18.50;53.30;;;;;;4921101;28;95375;-68
2022/04/29 02:13:12;;;;;;;77.18;54.85;;;18.50;53.30;;;;;;4907164;28;96052;-69
2022/04/29 02:15:38;;;;;;;75.30;53.85;;;18.40;53.30;;;;;;4913751;28;96597;-69
2022/04/29 02:18:04;;;;;;;74.25;53.75;;;18.40;53.20;;;;;;4922648;28;95566;-69
2022/04/29 02:20:29;;;;;;;74.05;53.97;;;18.40;53.30;;;;;;4913798;28;97126;-69
2022/04/29 02:22:57;;;;;;;74.22;53.67;;;18.40;53.30;;;;;;4912424;28;94002;-69
2022/04/29 02:25:23;;;;;;;75.38;53.40;;;18.40;53.30;;;;;;4916059;28;95063;-69
2022/04/29 02:27:49;;;;;;;74.60;54.22;;;18.40;53.40;;;;;;4914168;28;97743;-69
2022/04/29 02:30:14;;;;;;;73.97;53.83;;;18.40;53.40;;;;;;4919925;28;103484;-69
2022/04/29 02:32:41;;;;;;;77.15;54.97;;;18.40;53.80;;;;;;4917537;28;100393;-68
2022/04/29 02:35:07;;;;;;;77.13;54.13;;;18.40;53.40;;;;;;4915927;28;96091;-69
2022/04/29 02:37:33;;;;;;;74.10;53.45;;;18.40;53.40;;;;;;4911283;28;95299;-68
2022/04/29 02:39:58;;;;;;;75.90;54.00;;;18.40;53.40;;;;;;4918208;28;96337;-69
2022/04/29 02:42:24;;;;;;;73.53;53.33;;;18.40;53.30;;;;;;4920511;28;95341;-69
2022/04/29 02:44:50;;;;;;;75.10;54.13;;;18.30;53.40;;;;;;4914047;28;99401;-69
2022/04/29 02:47:16;;;;;;;73.47;53.80;;;18.30;53.30;;;;;;4912788;28;96221;-68
2022/04/29 02:49:44;;;;;;;73.55;53.85;;;18.40;53.40;;;;;;4917646;28;96254;-69
2022/04/29 02:52:11;;;;;;;74.40;54.35;;;18.30;53.40;;;;;;4912454;28;95480;-70
2022/04/29 02:54:38;;;;;;;73.35;53.78;;;18.30;53.40;;;;;;4918186;28;96653;-70
2022/04/29 02:57:04;;;;;;;74.53;54.60;;;18.30;53.40;;;;;;4917612;28;96267;-69
2022/04/29 02:59:30;;;;;;;76.85;53.85;;;18.30;53.50;;;;;;4913949;28;98898;-70
2022/04/29 03:01:55;;;;;;;74.03;53.13;;;18.30;53.40;;;;;;4913606;28;95374;-70
2022/04/29 03:04:21;;;;;;;75.15;53.60;;;18.30;53.40;;;;;;4920856;28;96072;-70
2022/04/29 03:06:46;;;;;;;75.15;53.95;;;18.30;53.40;;;;;;4923187;28;95167;-70
2022/04/29 03:09:12;;;;;;;75.13;54.13;;;18.30;53.40;;;;;;4905316;28;95914;-70
2022/04/29 03:11:38;;;;;;;74.63;53.92;;;18.30;54.00;;;;;;4909389;28;96478;-70
2022/04/29 03:14:05;;;;;;;76.28;54.83;;;18.20;53.40;;;;;;4910483;28;96072;-70
2022/04/29 03:16:31;;;;;;;76.25;53.60;;;18.20;53.40;;;;;;4910401;28;97131;-69
2022/04/29 03:18:57;;;;;;;76.63;54.35;;;18.20;53.60;;;;;;4907532;28;96971;-70
2022/04/29 03:21:23;;;;;;;74.57;53.33;;;18.20;53.50;;;;;;4906136;28;95430;-69
2022/04/29 03:23:49;;;;;;;78.32;53.55;;;18.20;53.70;;;;;;4898119;28;99791;-70
2022/04/29 03:26:15;;;;;;;79.03;54.70;;;18.20;53.70;;;;;;4908970;28;98995;-70
2022/04/29 03:28:41;;;;;;;74.93;54.00;;;18.20;53.60;;;;;;4918331;28;96273;-70
2022/04/29 03:31:07;;;;;;;76.20;54.08;;;18.20;53.60;;;;;;4906640;28;98249;-70
2022/04/29 03:33:33;;;;;;;74.65;53.80;;;18.20;53.50;;;;;;4910566;28;95289;-70
2022/04/29 03:35:59;;;;;;;74.90;53.97;;;18.20;53.40;;;;;;4910460;28;94256;-69
2022/04/29 03:38:25;;;;;;;72.85;52.72;;;18.20;53.50;;;;;;4911514;28;100152;-70
2022/04/29 03:40:51;;;;;;;74.32;53.33;;;18.20;53.60;;;;;;4912799;28;100986;-70
2022/04/29 03:43:17;;;;;;;75.15;53.53;;;18.20;53.60;;;;;;4915510;28;100145;-70
2022/04/29 03:45:43;;;;;;;76.05;53.38;;;18.20;53.70;;;;;;4914615;28;97427;-70
2022/04/29 03:48:10;;;;;;;75.82;54.05;;;18.10;53.60;;;;;;4913547;28;98615;-70
2022/04/29 03:50:36;;;;;;;78.10;53.15;;;18.20;53.60;;;;;;4904174;28;96044;-70
2022/04/29 03:53:03;;;;;;;73.38;53.05;;;18.10;53.50;;;;;;4903375;28;97963;-70
2022/04/29 03:55:31;;;;;;;73.80;53.20;;;18.20;53.70;;;;;;4912099;28;96021;-69
2022/04/29 03:57:58;;;;;;;72.53;52.90;;;18.10;53.70;;;;;;4918245;28;96582;-70
2022/04/29 04:00:26;;;;;;;74.10;53.10;;;18.10;53.70;;;;;;4924051;28;99533;-70
2022/04/29 04:02:52;;;;;;;73.85;53.90;;;18.10;53.70;;;;;;4912174;28;96681;-70
2022/04/29 04:05:18;;;;;;;77.05;54.08;;;18.10;53.60;;;;;;4926154;28;95364;-70
2022/04/29 04:07:45;;;;;;;74.32;53.88;;;18.10;53.60;;;;;;4915910;28;96147;-70
2022/04/29 04:10:12;;;;;;;73.57;52.95;;;18.10;53.70;;;;;;4931007;28;95126;-70
2022/04/29 04:12:46;;;;;;;74.50;53.00;;;18.10;53.70;;;;;;4915494;28;102136;-70
2022/04/29 04:15:13;;;;;;;76.20;54.00;;;18.10;53.80;;;;;;4916808;28;97556;-69
2022/04/29 04:17:39;;;;;;;73.75;53.20;;;18.00;53.70;;;;;;4915326;28;95586;-70
2022/04/29 04:20:07;;;;;;;75.80;54.33;;;18.00;53.80;;;;;;4914958;28;95569;-70
2022/04/29 04:22:36;;;;;;;73.68;53.50;;;18.00;53.80;;;;;;4917215;28;96243;-70
2022/04/29 04:25:09;;;;;;;74.10;53.67;;;18.10;53.90;;;;;;4921368;28;99852;-70
2022/04/29 04:27:35;;;;;;;72.68;53.03;;;18.00;53.80;;;;;;4922000;28;95968;-70
2022/04/29 04:30:02;;;;;;;74.07;53.40;;;18.00;53.80;;;;;;4912005;28;100985;-70
2022/04/29 04:32:28;;;;;;;72.88;53.53;;;18.00;53.80;;;;;;4917540;28;100305;-69
2022/04/29 04:34:57;;;;;;;74.28;54.40;;;18.00;53.70;;;;;;4914171;28;97330;-70
2022/04/29 04:37:24;;;;;;;72.88;52.88;;;18.00;53.70;;;;;;4900249;28;96387;-68
2022/04/29 04:39:51;;;;;;;74.25;53.13;;;18.00;54.20;;;;;;4910752;28;99620;-68
2022/04/29 04:42:17;;;;;;;75.65;52.95;;;18.00;54.50;;;;;;4923404;28;98182;-68
2022/04/29 04:44:45;;;;;;;79.18;52.78;;;18.00;54.60;;;;;;4913155;28;95165;-67
2022/04/29 04:47:11;;;;;;;78.07;53.08;;;18.00;54.60;;;;;;4918410;28;95813;-67
2022/04/29 04:49:37;;;;;;;74.90;54.83;;;18.00;54.70;;;;;;4910936;28;94929;-71
2022/04/29 04:52:03;;;;;;;74.43;53.10;;;18.00;54.60;;;;;;4901806;28;97492;-70
2022/04/29 04:54:29;;;;;;;74.88;53.20;;;18.00;54.50;;;;;;4900672;28;98090;-72
2022/04/29 04:56:55;;;;;;;74.15;52.97;;;18.00;54.70;;;;;;4892957;28;96655;-70
2022/04/29 04:59:20;;;;;;;75.22;53.72;;;18.00;55.10;;;;;;4908583;28;96125;-71
2022/04/29 05:01:46;;;;;;;73.25;53.40;;;18.00;55.00;;;;;;4932254;28;97789;-69
2022/04/29 05:04:12;;;;;;;75.38;53.17;;;18.00;54.80;;;;;;4907182;28;102750;-71
2022/04/29 05:06:37;;;;;;;74.18;52.55;;;18.00;54.80;;;;;;4914190;28;99979;-72
2022/04/29 05:09:04;;;;;;;74.72;53.35;;;18.00;54.90;;;;;;4905302;28;96268;-71
2022/04/29 05:11:31;;;;;;;75.68;53.35;;;18.00;55.10;;;;;;4903133;28;96502;-69
2022/04/29 05:13:57;;;;;;;72.43;52.60;;;18.00;55.10;;;;;;4906140;28;97107;-68
2022/04/29 05:16:23;;;;;;;74.07;53.70;;;18.00;55.00;;;;;;4908076;28;95382;-68
2022/04/29 05:18:49;;;;;;;73.70;53.00;;;18.00;55.40;;;;;;4913900;28;97524;-69
2022/04/29 05:21:15;;;;;;;74.40;53.00;;;18.00;55.70;;;;;;4916070;28;96772;-68
2022/04/29 05:23:41;;;;;;;74.82;53.55;;;18.00;55.70;;;;;;4911917;28;98476;-70
2022/04/29 05:26:07;;;;;;;77.60;54.45;;;18.00;55.50;;;;;;4925328;28;94996;-71
2022/04/29 05:28:32;;;;;;;73.68;53.63;;;18.00;55.60;;;;;;4911479;28;95291;-68
2022/04/29 05:30:59;;;;;;;73.55;53.80;;;18.00;55.50;;;;;;4921659;28;96968;-69
2022/04/29 05:33:25;;;;;;;74.68;53.10;;;17.90;55.60;;;;;;4914018;28;96070;-70
2022/04/29 05:35:51;;;;;;;74.95;54.33;;;17.90;55.70;;;;;;4910869;28;97113;-70
2022/04/29 05:38:16;;;;;;;76.97;53.17;;;18.00;55.70;;;;;;4909887;28;94107;-71
2022/04/29 05:43:28;;;;;;;75.75;53.67;;;18.00;55.80;;;;;;4910270;28;95397;-71
2022/04/29 05:45:54;;;;;;;75.03;52.60;;;18.00;55.70;;;;;;4920664;28;97716;-69
2022/04/29 05:48:20;;;;;;;73.05;53.30;;;18.00;55.80;;;;;;4913295;28;95999;-70
2022/04/29 05:50:46;;;;;;;75.03;53.47;;;18.00;55.60;;;;;;4919619;28;96267;-70
2022/04/29 05:53:12;;;;;;;74.95;53.95;;;18.00;55.40;;;;;;4912887;28;96558;-70
2022/04/29 05:55:38;;;;;;;72.95;53.05;;;18.00;55.30;;;;;;4920162;28;96649;-70
2022/04/29 05:58:04;;;;;;;73.18;52.97;;;18.00;55.20;;;;;;4905885;28;96165;-70
2022/04/29 06:00:30;;;;;;;72.70;52.35;;;18.00;55.10;;;;;;4918169;28;96549;-69
2022/04/29 06:02:56;;;;;;;77.00;52.70;;;18.00;55.30;;;;;;4918782;28;100722;-69
2022/04/29 06:05:22;;;;;;;74.88;52.97;;;18.00;56.20;;;;;;4919355;28;97306;-69
2022/04/29 06:07:48;;;;;;;77.82;53.10;;;18.00;56.40;;;;;;4914342;28;95299;-70
2022/04/29 06:10:14;;;;;;;77.30;53.03;;;18.00;57.10;;;;;;4912986;28;101027;-70
2022/04/29 06:12:41;;;;;;;74.28;52.97;;;17.90;57.10;;;;;;4902876;28;100093;-71
2022/04/29 06:15:12;;;;;;;77.82;54.05;;;17.90;57.00;;;;;;4913411;28;97211;-70
2022/04/29 06:17:38;;;;;;;76.57;53.30;;;17.90;56.90;;;;;;4911625;28;95186;-70
2022/04/29 06:20:04;;;;;;;76.53;54.10;;;17.90;56.80;;;;;;4904876;28;97898;-71
2022/04/29 06:22:30;;;;;;;77.07;53.75;;;17.90;56.80;;;;;;4909966;28;96409;-71
2022/04/29 06:24:56;;;;;;;75.68;54.47;;;17.90;56.70;;;;;;4916486;28;95462;-70
2022/04/29 06:27:22;;;;;;;80.50;54.78;;;17.90;56.60;;;;;;4910742;28;96571;-70
2022/04/29 06:29:47;;;;;;;78.85;54.45;;;17.90;56.50;;;;;;4922541;28;95679;-71
2022/04/29 06:32:13;;;;;;;77.53;55.38;;;17.90;56.30;;;;;;4905940;28;95905;-70
2022/04/29 06:34:39;;;;;;;79.10;55.63;;;17.90;56.20;;;;;;4913030;28;97346;-70
2022/04/29 06:37:05;;;;;;;82.47;55.88;;;17.90;56.20;;;;;;4915890;28;95611;-70
2022/04/29 06:39:30;;;;;;;85.00;56.38;;;17.90;56.10;;;;;;4919413;28;102238;-70
2022/04/29 06:41:56;;;;;;;78.85;55.95;;;17.90;56.10;;;;;;4909683;28;95650;-70
2022/04/29 06:44:22;;;;;;;80.93;56.13;;;17.90;56.00;;;;;;4912877;28;95173;-71
2022/04/29 06:46:50;;;;;;;80.70;56.15;;;17.80;55.90;;;;;;4912908;28;95337;-72
2022/04/29 06:49:16;;;;;;;81.15;56.40;;;17.90;55.80;;;;;;4910655;28;97009;-71
2022/04/29 06:51:42;;;;;;;82.78;57.45;;;17.90;55.70;;;;;;4909225;28;95855;-71
2022/04/29 06:54:07;;;;;;;82.50;56.83;;;17.80;55.70;;;;;;4903383;28;98836;-71
2022/04/29 06:56:33;;;;;;;80.75;56.47;;;17.90;55.60;;;;;;4912141;28;95651;-71
2022/04/29 06:58:59;;;;;;;79.20;56.45;;;17.90;55.60;;;;;;4916386;28;97973;-70
2022/04/29 07:01:24;;;;;;;83.43;56.85;;;17.80;55.50;;;;;;4918753;28;96030;-69
2022/04/29 07:03:50;;;;;;;79.13;56.88;;;17.90;55.50;;;;;;4916005;28;95598;-69
2022/04/29 07:06:15;;;;;;;78.40;56.72;;;17.90;55.40;;;;;;4915719;28;96110;-71
2022/04/29 07:08:41;;;;;;;78.47;55.65;;;17.90;55.30;;;;;;4894772;28;96817;-71
2022/04/29 07:11:07;;;;;;;78.80;56.45;;;17.90;55.30;;;;;;4910867;28;101356;-71
2022/04/29 07:13:32;;;;;;;84.10;57.10;;;17.90;55.30;;;;;;4905079;28;97548;-71
2022/04/29 07:15:58;;;;;;;78.55;56.47;;;17.90;55.30;;;;;;4910504;28;94921;-72
2022/04/29 07:18:24;;;;;;;80.53;56.85;;;17.90;55.20;;;;;;4912103;28;97275;-71
2022/04/29 07:20:50;;;;;;;80.97;56.70;;;17.80;55.30;;;;;;4909863;28;96267;-71
2022/04/29 07:23:15;;;;;;;80.38;56.03;;;17.80;55.30;;;;;;4914566;28;101216;-69
2022/04/29 07:25:41;;;;;;;80.57;56.45;;;17.80;55.20;;;;;;4918784;28;97763;-68
2022/04/29 07:28:07;;;;;;;76.70;55.72;;;17.80;55.20;;;;;;4908617;28;96774;-69
2022/04/29 07:30:33;;;;;;;78.22;56.20;;;17.80;55.20;;;;;;4915471;28;97204;-68
2022/04/29 07:32:59;;;;;;;77.28;55.38;;;17.80;55.20;;;;;;4921982;28;95908;-68
2022/04/29 07:43:37;;;;;;;78.78;55.47;;;17.80;55.10;;;;;;4922509;28;95555;-69
2022/04/29 07:46:04;;;;;;;77.90;55.60;;;17.80;55.10;;;;;;4923239;28;95526;-69
2022/04/29 07:48:30;;;;;;;77.15;55.55;;;17.80;55.00;;;;;;4930685;28;97017;-69
2022/04/29 07:50:55;;;;;;;77.47;55.42;;;17.80;55.10;;;;;;4929633;28;96412;-71
2022/04/29 07:53:21;;;;;;;80.55;55.63;;;17.80;54.90;;;;;;4917692;28;100586;-68
2022/04/29 07:55:47;;;;;;;75.65;54.70;;;17.90;55.20;;;;;;4912953;28;96331;-69
2022/04/29 07:58:13;;;;;;;78.50;55.38;;;17.90;55.20;;;;;;4921691;28;100594;-67
2022/04/29 08:00:39;;;;;;;82.47;55.33;;;17.90;55.00;;;;;;4903779;28;101082;-67
2022/04/29 08:03:05;;;;;;;78.03;54.83;;;17.90;55.20;;;;;;4912967;28;96267;-67
2022/04/29 08:05:31;;;;;;;80.43;55.22;;;17.90;55.20;;;;;;4914880;28;94974;-67
2022/04/29 08:07:59;;;;;;;79.50;55.20;;;17.90;54.90;;;;;;4903993;28;96363;-67
2022/04/29 08:10:32;;;;;;;76.32;55.58;;;17.90;55.00;;;;;;4899736;28;99537;-67
2022/04/29 08:12:59;;;;;;;77.45;55.42;;;17.90;55.00;;;;;;4905004;28;96491;-67
2022/04/29 08:15:26;;;;;;;75.68;54.60;;;17.90;55.00;;;;;;4917387;28;101751;-67
2022/04/29 08:17:51;;;;;;;80.22;54.80;;;17.90;55.20;;;;;;4916020;28;96901;-67
2022/04/29 08:20:17;;;;;;;76.05;54.85;;;17.90;55.20;;;;;;4918623;28;100566;-67
2022/04/29 08:22:43;;;;;;;76.68;54.72;;;17.90;55.20;;;;;;4921453;28;95283;-67
2022/04/29 08:25:09;;;;;;;76.35;54.70;;;17.90;55.20;;;;;;4923158;28;96583;-67
2022/04/29 08:27:35;;;;;;;80.25;55.25;;;17.90;55.20;;;;;;4916732;28;100820;-67
2022/04/29 08:30:01;;;;;;;76.50;54.80;;;17.90;55.10;;;;;;4920259;28;96639;-67
2022/04/29 08:32:27;;;;;;;76.68;54.95;;;18.00;55.40;;;;;;4918966;28;96438;-67
2022/04/29 08:34:52;;;;;;;75.95;54.95;;;18.00;55.10;;;;;;4927278;28;95140;-67
2022/04/29 08:37:18;;;;;;;79.20;55.35;;;18.00;55.00;;;;;;4921074;28;101856;-67
2022/04/29 08:39:44;;;;;;;78.03;54.97;;;18.00;54.80;;;;;;4928190;28;96836;-67
2022/04/29 08:42:11;;;;;;;79.25;55.13;;;18.00;54.80;;;;;;4917942;28;100195;-67
2022/04/29 08:44:41;;;;;;;80.15;55.85;;;18.10;54.80;;;;;;4934166;28;94818;-68
2022/04/29 08:47:08;;;;;;;78.63;55.13;;;18.10;54.80;;;;;;4916379;28;96325;-67
2022/04/29 08:49:35;;;;;;;82.10;55.72;;;18.10;54.80;;;;;;4926193;28;96229;-68
2022/04/29 08:52:01;;;;;;;79.43;55.50;;;18.10;54.70;;;;;;4916113;28;95680;-68
2022/04/29 09:00:04;;;;;;;78.57;55.50;;;18.20;54.80;;;;;;4918698;28;100186;-67
2022/04/29 09:02:38;;;;;;;78.53;55.10;;;18.20;54.70;;;;;;4914146;28;99398;-69
2022/04/29 09:05:09;;;;;;;79.35;54.95;;;18.20;54.80;;;;;;4917400;28;96896;-68
2022/04/29 09:07:54;;;;;;;77.53;55.53;;;18.30;54.90;;;;;;4896512;28;97876;-71
2022/04/29 09:10:21;;;;;;;78.55;55.13;;;18.30;54.90;;;;;;4914424;28;97182;-68
2022/04/29 09:12:48;;;;;;;80.80;55.17;;;18.30;54.80;;;;;;4904259;28;95960;-68
2022/04/29 09:15:15;;;;;;;78.30;55.67;;;18.30;54.90;;;;;;4925701;28;94689;-68
2022/04/29 09:17:49;;;;;;;80.13;55.50;;;18.30;54.90;;;;;;4909627;28;98001;-68
2022/04/29 09:20:20;;;;;;;81.43;56.00;;;18.30;54.90;;;;;;4906994;28;98697;-68
2022/04/29 09:22:47;;;;;;;79.63;55.55;;;18.40;54.90;;;;;;4906645;28;98209;-68
2022/04/29 09:25:14;;;;;;;79.80;56.45;;;18.40;54.90;;;;;;4908469;28;101629;-68
2022/04/29 09:28:02;;;;;;;80.88;55.33;;;18.40;54.70;;;;;;4901882;28;97967;-70
2022/04/29 09:30:37;;;;;;;81.22;55.97;;;18.50;54.80;;;;;;4910876;28;99877;-68
2022/04/29 09:33:16;;;;;;;80.63;56.30;;;18.50;54.80;;;;;;4911547;28;96598;-68
2022/04/29 09:35:43;;;;;;;78.70;55.72;;;18.50;54.80;;;;;;4918831;28;96913;-67
2022/04/29 09:40:55;;;;;;;78.82;55.65;;;18.50;54.80;;;;;;4913313;28;100039;-67
2022/04/29 09:43:38;;;;;;;80.47;55.75;;;18.60;54.80;;;;;;4914555;28;95512;-67
2022/04/29 09:46:10;;;;;;;83.40;55.70;;;18.60;54.80;;;;;;4915367;28;96428;-67
2022/04/29 09:49:08;;;;;;;79.47;56.05;;;18.60;54.60;;;;;;4924720;28;98415;-67
2022/04/29 09:51:46;;;;;;;84.03;56.30;;;18.70;54.60;;;;;;4914401;28;95021;-67
2022/04/29 09:54:19;;;;;;;80.53;55.83;;;18.70;54.60;;;;;;4926619;28;96195;-68
2022/04/29 09:57:01;;;;;;;84.35;56.60;;;18.70;54.60;;;;;;4923678;28;94786;-67
2022/04/29 09:59:30;;;;;;;83.88;56.97;;;18.70;54.70;;;;;;4912312;28;98628;-69
2022/04/29 10:01:56;;;;;;;81.28;56.20;;;18.70;55.00;;;;;;4913469;28;97234;-68
2022/04/29 10:04:23;;;;;;;79.20;55.85;;;18.80;54.80;;;;;;4921810;28;96320;-68
2022/04/29 10:06:49;;;;;;;80.15;56.03;;;18.80;54.90;;;;;;4917493;28;95503;-68
2022/04/29 10:09:18;;;;;;;82.95;56.20;;;18.80;54.80;;;;;;4911605;28;96243;-70
2022/04/29 10:11:44;;;;;;;83.95;55.97;;;18.80;54.50;;;;;;4913435;28;97964;-68
2022/04/29 10:14:17;;;;;;;84.20;56.20;;;18.90;54.60;;;;;;4918924;28;95399;-68
2022/04/29 10:21:15;;;;;;;81.07;55.85;;;18.90;54.50;;;;;;4914633;28;97069;-69
2022/04/29 10:22:18;;;;;;;81.75;56.10;;;18.90;54.30;;;;;;4913954;28;101574;-69
2022/04/29 10:24:43;;;;;;;81.00;56.08;;;18.90;54.40;;;;;;4913412;28;95121;-68
2022/04/29 10:27:10;;;;;;;81.60;56.22;;;19.00;54.60;;;;;;4920086;28;96566;-68
2022/04/29 10:29:36;;;;;;;82.30;56.70;;;18.90;55.00;;;;;;4919042;28;98276;-69
2022/04/29 10:32:09;;;;;;;82.10;56.45;;;18.90;55.20;;;;;;4919040;28;94905;-69
2022/04/29 10:34:35;;;;;;;80.57;56.05;;;18.90;55.70;;;;;;4926602;28;99109;-72
2022/04/29 10:37:08;;;;;;;79.72;55.92;;;18.90;55.80;;;;;;4915205;28;98793;-68
2022/04/29 10:39:34;;;;;;;83.50;55.92;;;18.90;56.20;;;;;;4918135;28;95391;-69
2022/04/29 10:42:06;;;;;;;80.10;55.47;;;18.90;56.20;;;;;;4926831;28;98719;-67
2022/04/29 10:44:31;;;;;;;82.85;55.40;;;18.90;56.50;;;;;;4921383;28;96343;-67
2022/04/29 10:47:23;;;;;;;82.43;56.88;;;18.90;56.50;;;;;;4921081;28;94784;-67
2022/04/29 10:49:49;;;;;;;81.85;56.22;;;18.90;56.20;;;;;;4918854;28;97442;-67
2022/04/29 10:52:28;;;;;;;78.22;55.15;;;18.90;56.40;;;;;;4909890;28;95643;-67
2022/04/29 10:54:58;;;;;;;81.60;56.25;;;18.90;56.30;;;;;;4911624;28;97623;-68
2022/04/29 10:57:41;;;;;;;82.53;55.60;;;18.90;55.90;;;;;;4912627;28;98951;-68
2022/04/29 11:00:13;;;;;;;79.40;55.13;;;18.90;56.30;;;;;;4926777;28;96867;-67
2022/04/29 11:02:39;;;;;;;83.20;55.60;;;18.90;56.60;;;;;;4911726;28;96463;-69
2022/04/29 11:05:06;;;;;;;79.75;56.05;;;18.90;56.40;;;;;;4924612;28;96927;-70
2022/04/29 11:07:53;;;;;;;78.43;55.30;;;18.90;56.00;;;;;;4925046;28;97174;-70
2022/04/29 11:10:24;;;;;;;80.50;55.60;;;18.90;56.90;;;;;;4901297;28;101837;-70
2022/04/29 11:13:03;;;;;;;79.20;54.53;;;18.90;57.10;;;;;;4911228;28;101530;-69
2022/04/29 11:15:45;;;;;;;79.22;54.90;;;19.00;57.50;;;;;;4902714;28;96698;-69
2022/04/29 11:18:19;;;;;;;81.03;56.72;;;19.00;57.60;;;;;;4907029;28;96903;-69
2022/04/29 11:20:47;;;;;;;78.68;55.83;;;19.00;56.80;;;;;;4895161;28;96978;-69
2022/04/29 11:26:00;;;;;;;79.35;55.70;;;18.90;58.30;;;;;;4903861;28;94938;-70
2022/04/29 11:28:27;;;;;;;79.07;54.92;;;18.90;59.10;;;;;;4912519;28;95714;-66
2022/04/29 11:31:04;;;;;;;78.60;55.22;;;19.00;59.60;;;;;;4920792;28;99498;-69
2022/04/29 11:33:30;;;;;;;79.28;55.33;;;19.00;59.70;;;;;;4903658;28;96647;-68
2022/04/29 11:36:10;;;;;;;80.55;56.05;;;19.00;60.30;;;;;;4911758;28;96826;-69
2022/04/29 11:38:41;;;;;;;79.85;55.70;;;19.00;59.80;;;;;;4917478;28;101717;-68
2022/04/29 11:41:07;;;;;;;78.70;55.65;;;18.90;60.00;;;;;;4913997;28;95178;-67
2022/04/29 11:43:33;;;;;;;82.90;55.95;;;18.90;61.30;;;;;;4912620;28;95384;-67
2022/04/29 11:46:07;;;;;;;83.00;56.20;;;19.00;61.70;;;;;;4904457;28;99204;-68
2022/04/29 11:48:34;;;;;;;79.80;56.60;;;19.00;61.50;;;;;;4905713;28;96361;-67
2022/04/29 11:51:01;;;;;;;78.78;55.60;;;19.00;61.10;;;;;;4901134;28;99747;-67
2022/04/29 11:53:27;;;;;;;78.57;55.80;;;19.00;61.50;;;;;;4899646;28;95961;-67
2022/04/29 11:55:53;;;;;;;81.70;56.55;;;19.00;61.40;;;;;;4903639;28;96161;-67
2022/04/29 11:58:19;;;;;;;80.03;56.78;;;19.00;61.40;;;;;;4908002;28;98832;-68
2022/04/29 12:00:54;;;;;;;80.85;55.95;;;19.00;60.00;;;;;;4926324;28;96868;-68
2022/04/29 12:03:21;;;;;;;79.40;56.78;;;19.00;60.70;;;;;;4905459;28;100064;-68
2022/04/29 12:05:47;;;;;;;79.07;56.15;;;19.00;60.20;;;;;;4912701;28;97220;-68
2022/04/29 12:08:12;;;;;;;80.85;57.45;;;19.00;60.50;;;;;;4905793;28;96611;-68
2022/04/29 12:10:45;;;;;;;82.35;56.70;;;19.00;59.20;;;;;;4920549;28;96363;-69
2022/04/29 12:13:12;;;;;;;83.63;56.70;;;19.00;60.20;;;;;;4895152;28;97460;-68
2022/04/29 12:15:41;;;;;;;78.85;55.75;;;19.10;60.00;;;;;;4912381;28;96059;-68
2022/04/29 12:18:14;;;;;;;78.30;55.65;;;19.10;60.10;;;;;;4911164;28;94617;-69
2022/04/29 12:20:41;;;;;;;79.30;55.88;;;19.10;59.90;;;;;;4932256;28;97860;-68
2022/04/29 12:23:19;;;;;;;80.13;56.20;;;19.10;60.10;;;;;;4922511;28;97502;-68
2022/04/29 12:25:47;;;;;;;76.50;54.95;;;19.10;59.00;;;;;;4934071;28;99826;-68
2022/04/29 12:28:19;;;;;;;78.97;55.15;;;19.10;60.10;;;;;;4922656;28;96418;-68
2022/04/29 12:36:31;;;;;;;78.22;54.53;;;19.20;59.50;;;;;;4928090;28;95613;-68
2022/04/29 12:39:05;;;;;;;76.57;54.90;;;19.20;59.00;;;;;;4918611;28;96118;-67
2022/04/29 12:41:30;;;;;;;79.65;55.88;;;19.20;59.50;;;;;;4922309;28;103404;-68
2022/04/29 12:44:11;;;;;;;79.78;55.88;;;19.20;58.00;;;;;;4917904;28;94676;-69
2022/04/29 12:46:37;;;;;;;82.13;55.42;;;19.20;59.00;;;;;;4925832;28;96237;-68
2022/04/29 12:49:03;;;;;;;79.82;56.03;;;19.20;57.40;;;;;;4921875;28;95549;-68
2022/04/29 12:51:34;;;;;;;83.50;55.90;;;19.20;57.20;;;;;;4928816;28;96510;-69
2022/04/29 12:54:04;;;;;;;75.90;54.47;;;19.20;58.10;;;;;;4916744;28;95991;-68
2022/04/29 12:56:36;;;;;;;80.20;55.63;;;19.30;58.40;;;;;;4922524;28;98477;-68
2022/04/29 12:59:04;;;;;;;76.53;54.50;;;19.30;57.30;;;;;;4908074;28;100140;-68